CEC 2014 Haywood NORAM/Buff-Qualifier & Prologue | Zone4.ca



CEC 2014 Haywood NORAM/Buff-Qualifier & Prologue

Date: Jan 31, 2014
Official  Results
Location/Lieu: Nakkertok South Nordic Centre
Host Clubs Hôtes: Gatineau-Ottawa XC Clubs

Jury
TD / DT:  Shawn Sinclair 
ATD / DTA  Renée Thibeault 
Dir. Comp. Chief  Jim McCarthy 
CCC Dir. SFC  Dave Dyer 
Heure/Time: 10:00 am
Wind/Vent:  10km/hr Gusty Wind/Vent Dir: SW
Air Temp: -3 Snow/Neige T: -4
Weather/Météo: Sun/Cloud Snow/Neige: Groomed Powder

Open (M) 1.5 km. Free  Sprint Qualification  
PL Bib Name YOB Cat Rnk Div CCC# SFQ# FIS# Club Team Time Diff
1 1 Raphaël Couturier 1993 Open/Senior (M) 1/45 QC 18415 11134 3100185 C.N. Skibec CNEPH-NST 0:03:20.35  
2 3 Graham Nishikawa 1983 Open/Senior (M) 2/45 YT 12673   3100034 Whitehorse XC NST 0:03:25.42 +5.07
3 7 Michael Somppi 1988 Open/Senior (M) 3/45 ON 13526   3100160 Lappe Nordic AWCA-NST 0:03:26.14 +5.79
4 4 Sébastien Dandurand 1993 Open/Senior (M) 4/45 BC 28197     Canmore Nordic CVTC 0:03:27.22 +6.87
5 11 Ezekiel Williams 1993 Open/Senior (M) 5/45 QC 14195 18069 3100263 Nakkertok AWCA 0:03:27.93 +7.58
6 6 Colin Abbott 1990 Open/Senior (M) 6/45 YT 14227   3100191 Whitehorse XC Yukon Elite Squad 0:03:30.12 +9.77
7 12 Alex Mahoney 1992 Open/Senior (M) 7/45 AB 14608   3100250 Rocky Mountain Racers AWCA 0:03:30.30 +9.95
8 8 Julien Locke 1993 Open/Senior (M) 8/45 BC 21432   3100248 Black Jack XC Team Black Jack 0:03:30.60 +10.25
9 15 Dominique Moncion-Groulx 1993 Open/Senior (M) 9/45 QC 19561 15045 3100251 Nakkertok QCST 0:03:30.81 +10.46
10 28 Peter Beisel 1991 Open/Senior (M) 10/45 ON 18419   3100226 Carleton U XC Ottawa/Carleton U 0:03:31.42 +11.07
11 39 Victor Hopper 1994 Open/Junior A (M) 1/43 ON 21412   3100245 Big Thunder Nordic OST/Lakehead U 0:03:31.89 +11.54
12 5 Russell Kennedy 1991 Open/Senior (M) 11/45 AB 25625   3100268 Canmore Nordic AWCA 0:03:32.34 +11.99
13 51 Nicholas Pigeon 1995 Open/Junior A (M) 2/43 QC 24518 17545 3100298 Skinouk   0:03:32.59 +12.24
14 9 Yannick Lapierre 1992 Open/Senior (M) 12/45 AB 14579 15129 3100202 Nakkertok AWCA 0:03:33.38 +13.03
15 16 Geoffrey Richards 1992 Open/Senior (M) 13/45 BC 18425   3100260 Black Jack XC CVTC 0:03:33.55 +13.20
16 17 Kevin Sandau 1988 Open/Senior (M) 14/45 AB 13504   3100128 Foothills Nordic AWCA-NST 0:03:33.65 +13.30
17 10 Simon Lapointe 1993 Open/Senior (M) 15/45 QC 19621 1298 3100267 Skinouk CNEPH 0:03:34.50 +14.15
18 19 Alexis Morin 1993 Open/Senior (M) 16/45 QC 24486 16128 3100297 C.N. Skibec QCST/ U Laval 0:03:34.59 +14.24
19 31 Jack Carlyle 1993 Open/Senior (M) 17/45 ON 19782   3100266 Soo Finnish Nordic NDC TBay 0:03:34.63 +14.28
20 38 Evan Palmer Charrette 1994 Open/Junior A (M) 3/43 ON 22598   3100283 Lappe Nordic NDC TBay 0:03:34.70 +14.35
21 25 Nick Monette 1993 Open/Senior (M) 18/45 ON 19580   3100252 Team Hardwood NDC TBay 0:03:34.76 +14.41
22 2 Alexis Turgeon 1993 Open/Senior (M) 19/45 QC 19686 2174 3100234 Skinouk CNEPH 0:03:34.94 +14.59
23 37 Stuart Harden 1994 Open/Junior A (M) 4/43 AB 21549   3100308 Rocky Mountain Racers   0:03:35.62 +15.27
24 14 Martin Schrama 1992 Open/Senior (M) 20/45 BC 18392   3100199 Whistler Nordic CVTC 0:03:35.63 +15.28
25 26 Jordan Cascagnette 1991 Open/Senior (M) 21/45 ON 14334   3100224 Team Hardwood Nipissing U 0:03:36.10 +15.75
26 18 Christopher Hamilton 1989 Open/Senior (M) 22/45 ON 13690   3100186 Big Thunder Nordic AWCA 0:03:37.21 +16.86
27 30 Colin Foley 1995 Open/Junior A (M) 5/43 ON 23746   3100345 Nakkertok CVTC 0:03:37.47 +17.12
28 43 Benjamin Osorio 1993 Open/Senior (M) 23/45 ON 22606     Arrowhead Nordic CVTC 0:03:37.81 +17.46
29 13 Bob Thompson 1991 Open/Senior (M) 24/45 ON 14312   3100227 Team Hardwood NDC TBay 0:03:38.53 +18.18
30 35 Matthias Purdon 1989 Open/Senior (M) 25/45 ON 14209   3100259 Georgian Bay Trent U 0:03:38.68 +18.33
31 33 André Marchand 1990 Open/Senior (M) 26/45 ON 14171   3100205 XC Ottawa Carleton U 0:03:38.95 +18.60
32 42 Andrew Avis 1995 Open/Junior A (M) 6/43 BC 28641   3100337 Highland Trailblazers CVTC 0:03:39.02 +18.67
33 22 Colin Ferrie 1993 Open/Senior (M) 27/45 BC 19558     Kimberley Nordic Team Black Jack 0:03:39.62 +19.27
34 36 Olivier Hamel 1996 Open/Junior A (M) 7/43 QC 25623 17490 3100316 C.N. Skibec   0:03:39.95 +19.60
35 32 Steffan Lloyd 1990 Open/Senior (M) 28/45 QC 14503 12224 3100196 Nakkertok XC Ottawa/Carleton U 0:03:40.54 +20.19
36 46 Antoine Briand 1995 Open/Junior A (M) 8/43 QC 23624 25482 3100314 C.N. Skibec F X Garneau 0:03:41.17 +20.82
37 20 Matthew Saurette 1994 Open/Junior A (M) 9/43 AB 19576   3100271 Rocky Mountain Racers   0:03:41.24 +20.89
38 34 Scott Fraser 1993 Open/Senior (M) 29/45 AB 18509     Canmore Nordic SKST 0:03:42.03 +21.68
39 21 Kieran Baird 1990 Open/Senior (M) 30/45 AB 14542   3100340 Rocky Mountain Racers RMR 0:03:42.25 +21.90
40 24 Andrew Brisbin 1990 Open/Senior (M) 31/45 AB 14594   3100300 Rocky Mountain Racers   0:03:42.93 +22.58
41 50 Gavin Shields 1994 Open/Junior A (M) 10/43 ON 19224     Lappe Nordic   0:03:42.96 +22.61
42 44 Carrington Pomeroy 1993 Open/Senior (M) 32/45 QC 19604 13784 3100290 Nakkertok Carleton U 0:03:43.90 +23.55
43 27 Paul Dupuis 1993 Open/Senior (M) 33/45 AB 14604   3100240 Canmore Nordic CVTC 0:03:44.23 +23.88
44 45 Julien Lamoureux 1994 Open/Junior A (M) 11/43 QC 21454 14433 3100301 Montériski QCST/Edouard-Montpetit 0:03:44.39 +24.04
45 41 Sam Morris 1995 Open/Junior A (M) 12/43 BC 23638   3100317 Hollyburn XC CVTC 0:03:44.88 +24.53
46 52 Conor Thompson 1994 Open/Junior A (M) 13/43 QC 22614 16215 3100302 Montériski QCST 0:03:47.76 +27.41
47 62 Samuel Greer 1996 Open/Junior A (M) 14/43 ON 25709     Highland Trailblazers   0:03:48.20 +27.85
48 29 David Palmer 1993 Open/Senior (M) 34/45 BC 18506   3100292 Black Jack XC Team Black Jack 0:03:48.36 +28.01
49 49 Simon Beaudet 1985 Open/Senior (M) 35/45 QC 12901 27283 3100063 C.N. Skibec   0:03:49.16 +28.81
50 40 Thomas Reed-Métayer 1994 Open/Junior A (M) 15/43 QC 21601 24039 3100304 C.N. Skibec   0:03:49.35 +29.00
51 66 Nelson Allan 1995 Open/Junior A (M) 16/43 ON 21483     Nakkertok Carleton U 0:03:49.37 +29.02
52 47 Matthew Brown 1992 Open/Senior (M) 36/45 ON 21550   3100335 Mono Nordic XC Ottawa/Carleton U 0:03:49.59 +29.24
53 55 Graham Perry 1995 Open/Junior A (M) 17/43 ON 25760     Mono Nordic   0:03:50.41 +30.06
54 23 Kai Lukowiak 1991 Open/Senior (M) 37/45 AB 14564   3100330 Foothills Nordic   0:03:50.46 +30.11
55 88 Nansen Murray 1990 Open/Senior (M) 38/45 YT       Whitehorse XC Carleton U 0:03:50.62 +30.27
56 56 David Askwith 1995 Open/Junior A (M) 18/43 ON 25804   3100336 Georgian Bay   0:03:51.09 +30.74
57 53 Hughes Bergeron 1994 Open/Junior A (M) 19/43 QC 22616 14421 3100272 C.N. Skibec   0:03:51.38 +31.03
58 58 Symon Stowe 1994 Open/Junior A (M) 20/43 ON 21466     Nakkertok Carleton U 0:03:53.07 +32.72
59 57 Peter Hicks 1996 Open/Junior A (M) 21/43 AB 25580     Canmore Nordic AST 0:03:54.01 +33.66
60 73 Fergus Foster 1997 Open/Junior A (M) 22/43 ON 25591   3100243 Big Thunder Nordic   0:03:54.13 +33.78
61 78 Seamus Boyd-Porter 1994 Open/Junior A (M) 23/43 NF 27440     Avalon Nordic XCNL 0:03:54.15 +33.80
62 61 Curtis Marchand 1995 Open/Junior A (M) 24/43 QC 24470 14122 3100295 Skinouk Heritage Col. 0:03:54.34 +33.99
63 63 Frédéric Samson 1995 Open/Junior A (M) 25/43 QC 23581 2788   C.N. Skibec   0:03:54.83 +34.48
64 48 Liam Patterson 1995 Open/Junior A (M) 26/43 ON 14612   3100338 Big Thunder Nordic CVTC 0:03:54.84 +34.49
65 72 Samuel Pouliot 1995 Open/Junior A (M) 27/43 QC 24468 16737   Fondeurs-Laurentides   0:03:55.04 +34.69
66 65 Patrick Van Walraven 1994 Open/Junior A (M) 28/43 ON 21467     Nakkertok Carleton U 0:03:55.09 +34.74
67 70 Isaac Alexander-Cook 1995 Open/Junior A (M) 29/43 ON 27368     Nakkertok   0:03:55.16 +34.81
68 54 Konrad Wiltmann 1990 Open/Senior (M) 39/45 ON 14138     Georgian Nordic   0:03:56.48 +36.13
69 68 Eloi Lemay 1995 Open/Junior A (M) 30/43 QC 25772 22714   Fondeurs-Laurentides CEGEP Joliette 0:03:57.74 +37.39
70 59 Sam Weichel 1995 Open/Junior A (M) 31/43 ON 23733     Georgian Bay   0:03:58.28 +37.93
71 87 Drew Bursey 1994 Open/Junior A (M) 32/43 ON       Laurentian Nordic Laurentian U 0:03:59.98 +39.63
72 69 Konrad Kuhne 1996 Open/Junior A (M) 33/43 NF 23589     Menihek Nordic XCNL 0:04:01.33 +40.98
73 60 Zachary Cristofanilli 1996 Open/Junior A (M) 34/43 QC 25576 19202 3100291 Orford   0:04:01.39 +41.04
74 64 Jacob Porter 1990 Open/Senior (M) 40/45 ON 13507     Laurentian Nordic Laurentian U 0:04:02.84 +42.49
75 67 Matt Chalmers 1993 Open/Senior (M) 41/45 ON 28634     Highland Trailblazers Nipissing U 0:04:05.06 +44.71
76 71 Liam Fox 1994 Open/Junior A (M) 35/43 ON 22612     Varsity Blues U of T Toronto U 0:04:06.13 +45.78
77 75 Kevin Durkee 1993 Open/Senior (M) 42/45 NT 20518     Yellowknife Nipissing U 0:04:07.42 +47.07
78 74 Sean Carter 1995 Open/Junior A (M) 36/43 MB 23618     Red River Nordic Lakehead U 0:04:10.05 +49.70
79 76 Jesse Williams 1995 Open/Junior A (M) 37/43 QC 24458 18068   Nakkertok   0:04:10.08 +49.73
80 84 Ewan Craig 1993 Open/Senior (M) 43/45 ON 32891     Laurentian Nordic Laurentian U 0:04:10.36 +50.01
81 89 Christopher Weller 1994 Open/Junior A (M) 38/43 ON       Carleton U Carleton U 0:04:11.54 +51.19
82 79 Frédérick Tessier-Brassard 1991 Open/Senior (M) 44/45 QC 25699 19775   C.N. Skibec   0:04:12.35 +52.00
83 82 Erik Charron 1983 Open/Senior (M) 45/45 NF 24480   3100238 Avalon Nordic XCNL 0:04:16.03 +55.68
84 85 Scott Gillam 1995 Open/Junior A (M) 39/43 ON 31835     Kawartha Nordic   0:04:20.54 +1:00.19
85 83 Jonah Hudec 1995 Open/Junior A (M) 40/43 NS 24505     North Highlands Nordic NSST 0:04:25.86 +1:05.51
86 86 Bryan Stone 1995 Open/Junior A (M) 41/43 ON       Arrowhead Nordic Nipissing U 0:04:33.73 +1:13.38
87 81 Rudolph Guliani 1994 Open/Junior A (M) 42/43 ON 30879     Varsity Blues U of T Toronto U 0:04:36.65 +1:16.30
88 80 David Hanson 1995 Open/Junior A (M) 43/43 ON 25785     Walden Nordic   0:04:48.53 +1:28.18
DNS 77 Gabriel Houde 1995 Open/Junior A (M) * QC 27500 23954   Défi T.M.   *** ***


Results are posted through an automated system by licenced clubs. For inquires about result corrections please contact the race organizer.

Copyright 2020 - Zone4 Systems zone4.ca       Privacy Policy     Delivery/Refund Policy     Terms of Service    Contact Zone4